LFLY/LYN METAR and TAF weather

Enter ICAO airport designator
Station Type Date Time Source
LFLY METAR 2020/10/20 18:00 UTC NOAA

LFLY 201800Z AUTO 19015KT CAVOK 17/08 Q1014 BECMG 18015G25KT


Station Type Date Time Source
LFLY Decoded METAR 2020/10/20 18:00 UTC NOAA

Lyon / Bron, France (LFLY) 45-43N 004-57E 201M
Oct 20, 2020 - 02:00 PM EDT / 2020.10.20 1800 UTC
Wind: from the S (190 degrees) at 17 MPH (15 KT):0
Visibility: greater than 7 mile(s):0
Temperature: 62 F (17 C)
Dew Point: 46 F (8 C)
Relative Humidity: 55%
Pressure (altimeter): 29.94 in. Hg (1014 hPa)
ob: LFLY 201800Z AUTO 19015KT CAVOK 17/08 Q1014 BECMG 18015G25KT
cycle: 18

Station Type Date Time Source
LFLY TAF 2020/10/20 18:21 UTC NOAA

TAF LFLY 201700Z 2018/2118 18015G25KT CAVOK
TEMPO 2020/2108 18020G35KT PROB30
TEMPO 2021/2101 18030G44KT

Example: see airport list